| time (UTC) | temp C | wind direction | speed KPH | gust KPH | rain 1hr cm | rain 24hr cm | rain mn cm | humidity % | barometer mb |
| 20260509135146 | 12 | 302 | 0.0 | 0.0 | 0.00 | 0.00 | 0.00 | 67 | 1019.6 |
| 20260509132146 | 13 | 302 | 0.0 | 0.0 | 0.00 | 0.00 | 0.00 | 65 | 1019.4 |
| 20260509125147 | 13 | 316 | 0.0 | 0.0 | 0.00 | 0.00 | 0.00 | 63 | 1019.2 |
| 20260509122145 | 14 | 329 | 0.0 | 0.0 | 0.00 | 0.00 | 0.00 | 60 | 1018.9 |
| 20260509115145 | 16 | 329 | 0.0 | 0.0 | 0.00 | 0.00 | 0.00 | 56 | 1018.7 |
| 20260509112146 | 16 | 42 | 0.0 | 0.0 | 0.00 | 0.00 | 0.00 | 51 | 1018.5 |
| 20260509105147 | 17 | 77 | 0.0 | 0.0 | 0.00 | 0.00 | 0.00 | 49 | 1018.2 |
| 20260509102146 | 17 | 19 | 0.0 | 0.0 | 0.00 | 0.00 | 0.00 | 46 | 1017.7 |
| 20260509095145 | 18 | 330 | 4.8 | 8.0 | 0.00 | 0.00 | 0.00 | 44 | 1017.3 |
| 20260509092145 | 19 | 348 | 9.7 | 14.5 | 0.00 | 0.00 | 0.00 | 43 | 1016.9 |
| 20260509085146 | 20 | 347 | 9.7 | 14.5 | 0.00 | 0.00 | 0.00 | 41 | 1016.4 |
| 20260509082146 | 20 | 348 | 8.0 | 11.3 | 0.00 | 0.00 | 0.00 | 37 | 1016.3 |
| 20260509075145 | 21 | 321 | 11.3 | 14.5 | 0.00 | 0.00 | 0.00 | 35 | 1016.1 |
| 20260509072145 | 21 | 335 | 9.7 | 16.1 | 0.00 | 0.00 | 0.00 | 34 | 1016.0 |
| 20260509065145 | 21 | 306 | 3.2 | 8.0 | 0.00 | 0.00 | 0.00 | 37 | 1015.9 |
| 20260509062147 | 21 | 349 | 4.8 | 16.1 | 0.00 | 0.00 | 0.00 | 36 | 1015.8 |
| 20260509055145 | 21 | 4 | 11.3 | 19.3 | 0.00 | 0.00 | 0.00 | 36 | 1015.5 |
| 20260509052145 | 21 | 285 | 19.3 | 25.7 | 0.00 | 0.00 | 0.00 | 34 | 1015.6 |
| 20260509045145 | 21 | 35 | 8.0 | 20.9 | 0.00 | 0.00 | 0.00 | 34 | 1015.6 |
| 20260509042145 | 21 | 5 | 11.3 | 19.3 | 0.00 | 0.00 | 0.00 | 34 | 1016.1 |
| 20260509035146 | 21 | 6 | 11.3 | 19.3 | 0.00 | 0.00 | 0.00 | 34 | 1016.1 |
| 20260509032146 | 21 | 313 | 3.2 | 19.3 | 0.00 | 0.00 | 0.00 | 37 | 1016.3 |
| 20260509025146 | 20 | 341 | 11.3 | 29.0 | 0.00 | 0.00 | 0.00 | 38 | 1016.4 |
| 20260509022146 | 19 | 10 | 12.9 | 19.3 | 0.00 | 0.00 | 0.00 | 40 | 1016.8 |
| 20260509015146 | 19 | 345 | 9.7 | 14.5 | 0.00 | 0.00 | 0.00 | 42 | 1017.2 |
| 20260509012145 | 18 | 331 | 8.0 | 9.7 | 0.00 | 0.00 | 0.00 | 45 | 1017.3 |
| 20260509005146 | 18 | 24 | 9.7 | 14.5 | 0.00 | 0.00 | 0.00 | 47 | 1017.3 |
| 20260509002144 | 17 | 358 | 14.5 | 20.9 | 0.00 | 0.00 | 0.00 | 49 | 1017.4 |
| 20260508235144 | 16 | 10 | 11.3 | 14.5 | 0.00 | 0.00 | 0.00 | 52 | 1017.1 |
| 20260508232146 | 16 | 327 | 12.9 | 27.4 | 0.00 | 0.00 | 0.00 | 55 | 1017.3 |
| 20260508225146 | 15 | 293 | 11.3 | 20.9 | 0.00 | 0.00 | 0.00 | 57 | 1017.0 |
| 20260508222144 | 15 | 317 | 9.7 | 14.5 | 0.00 | 0.00 | 0.00 | 60 | 1016.9 |
| 20260508215146 | 13 | 302 | 0.0 | 0.0 | 0.00 | 0.00 | 0.00 | 64 | 1016.7 |
| 20260508212145 | 13 | 221 | 3.2 | 4.8 | 0.00 | 0.00 | 0.00 | 64 | 1016.4 |
| 20260508205145 | 13 | 267 | 0.0 | 0.0 | 0.00 | 0.00 | 0.00 | 63 | 1016.1 |
| 20260508202145 | 13 | 309 | 0.0 | 0.0 | 0.00 | 0.00 | 0.00 | 62 | 1015.6 |
| 20260508195146 | 13 | 329 | 1.6 | 4.8 | 0.00 | 0.00 | 0.00 | 61 | 1015.3 |
| 20260508192146 | 13 | 342 | 8.0 | 9.7 | 0.00 | 0.00 | 0.00 | 63 | 1015.0 |
| 20260508185146 | 13 | 320 | 3.2 | 9.7 | 0.00 | 0.00 | 0.00 | 64 | 1014.7 |
| 20260508182145 | 14 | 306 | 14.5 | 19.3 | 0.00 | 0.00 | 0.00 | 63 | 1014.5 |
| 20260508175145 | 14 | 47 | 3.2 | 8.0 | 0.00 | 0.00 | 0.00 | 59 | 1014.3 |
| 20260508172145 | 13 | 246 | 0.0 | 0.0 | 0.00 | 0.00 | 0.00 | 62 | 1013.9 |
| 20260508165145 | 14 | 163 | 0.0 | 0.0 | 0.00 | 0.00 | 0.00 | 61 | 1013.6 |
| 20260508162145 | 14 | 188 | 0.0 | 0.0 | 0.00 | 0.00 | 0.00 | 60 | 1013.4 |
| 20260508155145 | 14 | 191 | 0.0 | 0.0 | 0.00 | 0.00 | 0.00 | 63 | 1013.3 |
| 20260508152144 | 14 | 234 | 0.0 | 0.0 | 0.00 | 0.00 | 0.00 | 62 | 1013.5 |
| 20260508145144 | 15 | 279 | 0.0 | 0.0 | 0.00 | 0.00 | 0.00 | 60 | 1013.4 |
| 20260508142146 | 15 | 280 | 0.0 | 0.0 | 0.00 | 0.00 | 0.00 | 56 | 1013.2 |